sensor_id;sensor_type;location;lat;lon;timestamp;P1;durP1;ratioP1;P2;durP2;ratioP2
17949;SDS011;9100;48.700;9.316;2023-06-10T00:00:13;6.9;;;6;;
17949;SDS011;9100;48.700;9.316;2023-06-10T00:00:56;6.3;;;5.7;;
17949;SDS011;9100;48.700;9.316;2023-06-10T00:01:14;6.3;;;5.7;;
17949;SDS011;9100;48.700;9.316;2023-06-10T00:02:14;6.3;;;5.7;;
17949;SDS011;9100;48.700;9.316;2023-06-10T00:03:14;6.3;;;5.7;;
17949;SDS011;9100;48.700;9.316;2023-06-10T00:04:14;6.3;;;5.7;;
17949;SDS011;9100;48.700;9.316;2023-06-10T00:05:13;6.3;;;5.7;;
17949;SDS011;9100;48.700;9.316;2023-06-10T00:05:57;6.4;;;5.8;;
17949;SDS011;9100;48.700;9.316;2023-06-10T00:06:14;6.4;;;5.8;;
17949;SDS011;9100;48.700;9.316;2023-06-10T00:07:14;6.4;;;5.8;;
17949;SDS011;9100;48.700;9.316;2023-06-10T00:08:14;6.4;;;5.8;;
17949;SDS011;9100;48.700;9.316;2023-06-10T00:09:14;6.4;;;5.8;;
17949;SDS011;9100;48.700;9.316;2023-06-10T00:10:14;6.4;;;5.8;;
17949;SDS011;9100;48.700;9.316;2023-06-10T00:10:56;9.2;;;6.1;;
17949;SDS011;9100;48.700;9.316;2023-06-10T00:11:14;9.2;;;6.1;;
17949;SDS011;9100;48.700;9.316;2023-06-10T00:12:14;9.2;;;6.1;;
17949;SDS011;9100;48.700;9.316;2023-06-10T00:13:13;9.2;;;6.1;;
17949;SDS011;9100;48.700;9.316;2023-06-10T00:14:13;9.2;;;6.1;;
17949;SDS011;9100;48.700;9.316;2023-06-10T00:15:14;9.2;;;6.1;;
17949;SDS011;9100;48.700;9.316;2023-06-10T00:15:56;5.9;;;5.4;;
17949;SDS011;9100;48.700;9.316;2023-06-10T00:16:13;5.9;;;5.4;;
17949;SDS011;9100;48.700;9.316;2023-06-10T00:17:13;5.9;;;5.4;;
17949;SDS011;9100;48.700;9.316;2023-06-10T00:18:13;5.9;;;5.4;;
17949;SDS011;9100;48.700;9.316;2023-06-10T00:19:13;5.9;;;5.4;;
17949;SDS011;9100;48.700;9.316;2023-06-10T00:20:14;5.9;;;5.4;;
17949;SDS011;9100;48.700;9.316;2023-06-10T00:20:56;6.9;;;6.3;;
17949;SDS011;9100;48.700;9.316;2023-06-10T00:21:14;6.9;;;6.3;;
17949;SDS011;9100;48.700;9.316;2023-06-10T00:22:14;6.9;;;6.3;;
17949;SDS011;9100;48.700;9.316;2023-06-10T00:23:14;6.9;;;6.3;;
17949;SDS011;9100;48.700;9.316;2023-06-10T00:24:14;6.9;;;6.3;;
17949;SDS011;9100;48.700;9.316;2023-06-10T00:25:14;6.9;;;6.3;;
17949;SDS011;9100;48.700;9.316;2023-06-10T00:25:57;9.4;;;6.4;;
17949;SDS011;9100;48.700;9.316;2023-06-10T00:26:14;9.4;;;6.4;;
17949;SDS011;9100;48.700;9.316;2023-06-10T00:27:14;9.4;;;6.4;;
17949;SDS011;9100;48.700;9.316;2023-06-10T00:28:14;9.4;;;6.4;;
17949;SDS011;9100;48.700;9.316;2023-06-10T00:29:14;9.4;;;6.4;;
17949;SDS011;9100;48.700;9.316;2023-06-10T00:30:13;9.4;;;6.4;;
17949;SDS011;9100;48.700;9.316;2023-06-10T00:30:57;6.7;;;6.1;;
17949;SDS011;9100;48.700;9.316;2023-06-10T00:31:13;6.7;;;6.1;;
17949;SDS011;9100;48.700;9.316;2023-06-10T00:32:13;6.7;;;6.1;;
17949;SDS011;9100;48.700;9.316;2023-06-10T00:33:13;6.7;;;6.1;;
17949;SDS011;9100;48.700;9.316;2023-06-10T00:34:13;6.7;;;6.1;;
17949;SDS011;9100;48.700;9.316;2023-06-10T00:35:13;6.7;;;6.1;;
17949;SDS011;9100;48.700;9.316;2023-06-10T00:35:56;8.8;;;6.8;;
17949;SDS011;9100;48.700;9.316;2023-06-10T00:36:14;8.8;;;6.8;;
17949;SDS011;9100;48.700;9.316;2023-06-10T00:37:13;8.8;;;6.8;;
17949;SDS011;9100;48.700;9.316;2023-06-10T00:38:14;8.8;;;6.8;;
17949;SDS011;9100;48.700;9.316;2023-06-10T00:39:14;8.8;;;6.8;;
17949;SDS011;9100;48.700;9.316;2023-06-10T00:40:14;8.8;;;6.8;;
17949;SDS011;9100;48.700;9.316;2023-06-10T00:40:56;13.1;;;6.7;;
17949;SDS011;9100;48.700;9.316;2023-06-10T00:41:14;13.1;;;6.7;;
17949;SDS011;9100;48.700;9.316;2023-06-10T00:42:14;13.1;;;6.7;;
17949;SDS011;9100;48.700;9.316;2023-06-10T00:43:14;13.1;;;6.7;;
17949;SDS011;9100;48.700;9.316;2023-06-10T00:44:14;13.1;;;6.7;;
17949;SDS011;9100;48.700;9.316;2023-06-10T00:45:14;13.1;;;6.7;;
17949;SDS011;9100;48.700;9.316;2023-06-10T00:45:57;6.8;;;6.2;;
17949;SDS011;9100;48.700;9.316;2023-06-10T00:46:14;6.8;;;6.2;;
17949;SDS011;9100;48.700;9.316;2023-06-10T00:47:14;6.8;;;6.2;;
17949;SDS011;9100;48.700;9.316;2023-06-10T00:48:14;6.8;;;6.2;;
17949;SDS011;9100;48.700;9.316;2023-06-10T00:49:14;6.8;;;6.2;;
17949;SDS011;9100;48.700;9.316;2023-06-10T00:50:14;6.8;;;6.2;;
17949;SDS011;9100;48.700;9.316;2023-06-10T00:50:57;6.8;;;6.2;;
17949;SDS011;9100;48.700;9.316;2023-06-10T00:51:14;6.8;;;6.2;;
17949;SDS011;9100;48.700;9.316;2023-06-10T00:52:14;6.8;;;6.2;;
17949;SDS011;9100;48.700;9.316;2023-06-10T00:53:14;6.8;;;6.2;;
17949;SDS011;9100;48.700;9.316;2023-06-10T00:54:14;6.8;;;6.2;;
17949;SDS011;9100;48.700;9.316;2023-06-10T00:55:15;6.8;;;6.2;;
17949;SDS011;9100;48.700;9.316;2023-06-10T00:55:57;6.8;;;6;;
17949;SDS011;9100;48.700;9.316;2023-06-10T00:56:14;6.8;;;6;;
17949;SDS011;9100;48.700;9.316;2023-06-10T00:57:14;6.8;;;6;;
17949;SDS011;9100;48.700;9.316;2023-06-10T00:58:14;6.8;;;6;;
17949;SDS011;9100;48.700;9.316;2023-06-10T00:59:14;6.8;;;6;;
17949;SDS011;9100;48.700;9.316;2023-06-10T01:00:14;6.8;;;6;;
17949;SDS011;9100;48.700;9.316;2023-06-10T01:00:56;7.7;;;6.5;;
17949;SDS011;9100;48.700;9.316;2023-06-10T01:01:14;7.7;;;6.5;;
17949;SDS011;9100;48.700;9.316;2023-06-10T01:02:14;7.7;;;6.5;;
17949;SDS011;9100;48.700;9.316;2023-06-10T01:03:14;7.7;;;6.5;;
17949;SDS011;9100;48.700;9.316;2023-06-10T01:04:14;7.7;;;6.5;;
17949;SDS011;9100;48.700;9.316;2023-06-10T01:05:14;7.7;;;6.5;;
17949;SDS011;9100;48.700;9.316;2023-06-10T01:05:57;7.1;;;6.2;;
17949;SDS011;9100;48.700;9.316;2023-06-10T01:06:16;7.1;;;6.2;;
17949;SDS011;9100;48.700;9.316;2023-06-10T01:07:14;7.1;;;6.2;;
17949;SDS011;9100;48.700;9.316;2023-06-10T01:08:15;7.1;;;6.2;;
17949;SDS011;9100;48.700;9.316;2023-06-10T01:09:17;7.1;;;6.2;;
17949;SDS011;9100;48.700;9.316;2023-06-10T01:10:16;7.1;;;6.2;;
17949;SDS011;9100;48.700;9.316;2023-06-10T01:10:57;7.1;;;6.4;;
17949;SDS011;9100;48.700;9.316;2023-06-10T01:11:15;7.1;;;6.4;;
17949;SDS011;9100;48.700;9.316;2023-06-10T01:12:15;7.1;;;6.4;;
17949;SDS011;9100;48.700;9.316;2023-06-10T01:13:14;7.1;;;6.4;;
17949;SDS011;9100;48.700;9.316;2023-06-10T01:14:14;7.1;;;6.4;;
17949;SDS011;9100;48.700;9.316;2023-06-10T01:15:14;7.1;;;6.4;;
17949;SDS011;9100;48.700;9.316;2023-06-10T01:15:57;7;;;6.3;;
17949;SDS011;9100;48.700;9.316;2023-06-10T01:16:14;7;;;6.3;;
17949;SDS011;9100;48.700;9.316;2023-06-10T01:17:14;7;;;6.3;;
17949;SDS011;9100;48.700;9.316;2023-06-10T01:18:14;7;;;6.3;;
17949;SDS011;9100;48.700;9.316;2023-06-10T01:19:14;7;;;6.3;;
17949;SDS011;9100;48.700;9.316;2023-06-10T01:20:14;7;;;6.3;;
17949;SDS011;9100;48.700;9.316;2023-06-10T01:20:56;8;;;6.5;;
17949;SDS011;9100;48.700;9.316;2023-06-10T01:21:16;8;;;6.5;;
17949;SDS011;9100;48.700;9.316;2023-06-10T01:22:14;8;;;6.5;;
17949;SDS011;9100;48.700;9.316;2023-06-10T01:23:15;8;;;6.5;;
17949;SDS011;9100;48.700;9.316;2023-06-10T01:24:14;8;;;6.5;;
17949;SDS011;9100;48.700;9.316;2023-06-10T01:25:14;8;;;6.5;;
17949;SDS011;9100;48.700;9.316;2023-06-10T01:25:57;6.2;;;5.7;;
17949;SDS011;9100;48.700;9.316;2023-06-10T01:26:14;6.2;;;5.7;;
17949;SDS011;9100;48.700;9.316;2023-06-10T01:27:14;6.2;;;5.7;;
17949;SDS011;9100;48.700;9.316;2023-06-10T01:28:16;6.2;;;5.7;;
17949;SDS011;9100;48.700;9.316;2023-06-10T01:29:14;6.2;;;5.7;;
17949;SDS011;9100;48.700;9.316;2023-06-10T01:30:14;6.2;;;5.7;;
17949;SDS011;9100;48.700;9.316;2023-06-10T01:30:59;8;;;6.3;;
17949;SDS011;9100;48.700;9.316;2023-06-10T01:31:16;8;;;6.3;;
17949;SDS011;9100;48.700;9.316;2023-06-10T01:32:15;8;;;6.3;;
17949;SDS011;9100;48.700;9.316;2023-06-10T01:33:14;8;;;6.3;;
17949;SDS011;9100;48.700;9.316;2023-06-10T01:34:14;8;;;6.3;;
17949;SDS011;9100;48.700;9.316;2023-06-10T01:35:14;8;;;6.3;;
17949;SDS011;9100;48.700;9.316;2023-06-10T01:35:57;7.4;;;6.6;;
17949;SDS011;9100;48.700;9.316;2023-06-10T01:36:15;7.4;;;6.6;;
17949;SDS011;9100;48.700;9.316;2023-06-10T01:37:15;7.4;;;6.6;;
17949;SDS011;9100;48.700;9.316;2023-06-10T01:38:14;7.4;;;6.6;;
17949;SDS011;9100;48.700;9.316;2023-06-10T01:39:14;7.4;;;6.6;;
17949;SDS011;9100;48.700;9.316;2023-06-10T01:40:16;7.4;;;6.6;;
17949;SDS011;9100;48.700;9.316;2023-06-10T01:40:56;13.5;;;7.4;;
17949;SDS011;9100;48.700;9.316;2023-06-10T01:41:16;13.5;;;7.4;;
17949;SDS011;9100;48.700;9.316;2023-06-10T01:42:14;13.5;;;7.4;;
17949;SDS011;9100;48.700;9.316;2023-06-10T01:43:14;13.5;;;7.4;;
17949;SDS011;9100;48.700;9.316;2023-06-10T01:44:17;13.5;;;7.4;;
17949;SDS011;9100;48.700;9.316;2023-06-10T01:45:14;13.5;;;7.4;;
17949;SDS011;9100;48.700;9.316;2023-06-10T01:45:56;8.7;;;6.6;;
17949;SDS011;9100;48.700;9.316;2023-06-10T01:46:14;8.7;;;6.6;;
17949;SDS011;9100;48.700;9.316;2023-06-10T01:47:14;8.7;;;6.6;;
17949;SDS011;9100;48.700;9.316;2023-06-10T01:48:14;8.7;;;6.6;;
17949;SDS011;9100;48.700;9.316;2023-06-10T01:49:14;8.7;;;6.6;;
17949;SDS011;9100;48.700;9.316;2023-06-10T01:50:14;8.7;;;6.6;;
17949;SDS011;9100;48.700;9.316;2023-06-10T01:50:57;9;;;7.1;;
17949;SDS011;9100;48.700;9.316;2023-06-10T01:51:14;9;;;7.1;;
17949;SDS011;9100;48.700;9.316;2023-06-10T01:52:14;9;;;7.1;;
17949;SDS011;9100;48.700;9.316;2023-06-10T01:53:14;9;;;7.1;;
17949;SDS011;9100;48.700;9.316;2023-06-10T01:54:14;9;;;7.1;;
17949;SDS011;9100;48.700;9.316;2023-06-10T01:55:14;9;;;7.1;;
17949;SDS011;9100;48.700;9.316;2023-06-10T01:55:56;8.9;;;7.3;;
17949;SDS011;9100;48.700;9.316;2023-06-10T01:56:14;8.9;;;7.3;;
17949;SDS011;9100;48.700;9.316;2023-06-10T01:57:14;8.9;;;7.3;;
17949;SDS011;9100;48.700;9.316;2023-06-10T01:58:14;8.9;;;7.3;;
17949;SDS011;9100;48.700;9.316;2023-06-10T01:59:14;8.9;;;7.3;;
17949;SDS011;9100;48.700;9.316;2023-06-10T02:00:14;8.9;;;7.3;;
17949;SDS011;9100;48.700;9.316;2023-06-10T02:00:56;7.7;;;6.9;;
17949;SDS011;9100;48.700;9.316;2023-06-10T02:01:14;7.7;;;6.9;;
17949;SDS011;9100;48.700;9.316;2023-06-10T02:02:14;7.7;;;6.9;;
17949;SDS011;9100;48.700;9.316;2023-06-10T02:03:14;7.7;;;6.9;;
17949;SDS011;9100;48.700;9.316;2023-06-10T02:04:14;7.7;;;6.9;;
17949;SDS011;9100;48.700;9.316;2023-06-10T02:05:14;7.7;;;6.9;;
17949;SDS011;9100;48.700;9.316;2023-06-10T02:05:56;7.2;;;6.5;;
17949;SDS011;9100;48.700;9.316;2023-06-10T02:06:14;7.2;;;6.5;;
17949;SDS011;9100;48.700;9.316;2023-06-10T02:07:14;7.2;;;6.5;;
17949;SDS011;9100;48.700;9.316;2023-06-10T02:08:14;7.2;;;6.5;;
17949;SDS011;9100;48.700;9.316;2023-06-10T02:09:14;7.2;;;6.5;;
17949;SDS011;9100;48.700;9.316;2023-06-10T02:10:14;7.2;;;6.5;;
17949;SDS011;9100;48.700;9.316;2023-06-10T02:10:56;8.9;;;6.7;;
17949;SDS011;9100;48.700;9.316;2023-06-10T02:11:14;8.9;;;6.7;;
17949;SDS011;9100;48.700;9.316;2023-06-10T02:12:14;8.9;;;6.7;;
17949;SDS011;9100;48.700;9.316;2023-06-10T02:13:14;8.9;;;6.7;;
17949;SDS011;9100;48.700;9.316;2023-06-10T02:14:14;8.9;;;6.7;;
17949;SDS011;9100;48.700;9.316;2023-06-10T02:15:14;8.9;;;6.7;;
17949;SDS011;9100;48.700;9.316;2023-06-10T02:15:57;7.4;;;6.7;;
17949;SDS011;9100;48.700;9.316;2023-06-10T02:16:14;7.4;;;6.7;;
17949;SDS011;9100;48.700;9.316;2023-06-10T02:17:14;7.4;;;6.7;;
17949;SDS011;9100;48.700;9.316;2023-06-10T02:18:14;7.4;;;6.7;;
17949;SDS011;9100;48.700;9.316;2023-06-10T02:19:14;7.4;;;6.7;;
17949;SDS011;9100;48.700;9.316;2023-06-10T02:20:14;7.4;;;6.7;;
17949;SDS011;9100;48.700;9.316;2023-06-10T02:20:56;7.1;;;6.4;;
17949;SDS011;9100;48.700;9.316;2023-06-10T02:21:14;7.1;;;6.4;;
17949;SDS011;9100;48.700;9.316;2023-06-10T02:22:14;7.1;;;6.4;;
17949;SDS011;9100;48.700;9.316;2023-06-10T02:23:14;7.1;;;6.4;;
17949;SDS011;9100;48.700;9.316;2023-06-10T02:24:14;7.1;;;6.4;;
17949;SDS011;9100;48.700;9.316;2023-06-10T02:25:14;7.1;;;6.4;;
17949;SDS011;9100;48.700;9.316;2023-06-10T02:25:56;8.1;;;7.2;;
17949;SDS011;9100;48.700;9.316;2023-06-10T02:26:14;8.1;;;7.2;;
17949;SDS011;9100;48.700;9.316;2023-06-10T02:27:14;8.1;;;7.2;;
17949;SDS011;9100;48.700;9.316;2023-06-10T02:28:14;8.1;;;7.2;;
17949;SDS011;9100;48.700;9.316;2023-06-10T02:29:14;8.1;;;7.2;;
17949;SDS011;9100;48.700;9.316;2023-06-10T02:30:14;8.1;;;7.2;;
17949;SDS011;9100;48.700;9.316;2023-06-10T02:30:57;10.3;;;7.4;;
17949;SDS011;9100;48.700;9.316;2023-06-10T02:31:14;10.3;;;7.4;;
17949;SDS011;9100;48.700;9.316;2023-06-10T02:32:14;10.3;;;7.4;;
17949;SDS011;9100;48.700;9.316;2023-06-10T02:33:14;10.3;;;7.4;;
17949;SDS011;9100;48.700;9.316;2023-06-10T02:34:14;10.3;;;7.4;;
17949;SDS011;9100;48.700;9.316;2023-06-10T02:35:14;10.3;;;7.4;;
17949;SDS011;9100;48.700;9.316;2023-06-10T02:35:56;8;;;7.2;;
17949;SDS011;9100;48.700;9.316;2023-06-10T02:36:14;8;;;7.2;;
17949;SDS011;9100;48.700;9.316;2023-06-10T02:37:14;8;;;7.2;;
17949;SDS011;9100;48.700;9.316;2023-06-10T02:38:14;8;;;7.2;;
17949;SDS011;9100;48.700;9.316;2023-06-10T02:39:14;8;;;7.2;;
17949;SDS011;9100;48.700;9.316;2023-06-10T02:40:14;8;;;7.2;;
17949;SDS011;9100;48.700;9.316;2023-06-10T02:40:57;8.9;;;7.3;;
17949;SDS011;9100;48.700;9.316;2023-06-10T02:41:14;8.9;;;7.3;;
17949;SDS011;9100;48.700;9.316;2023-06-10T02:42:14;8.9;;;7.3;;
17949;SDS011;9100;48.700;9.316;2023-06-10T02:43:14;8.9;;;7.3;;
17949;SDS011;9100;48.700;9.316;2023-06-10T02:44:14;8.9;;;7.3;;
17949;SDS011;9100;48.700;9.316;2023-06-10T02:45:14;8.9;;;7.3;;
17949;SDS011;9100;48.700;9.316;2023-06-10T02:45:56;7.9;;;7.1;;
17949;SDS011;9100;48.700;9.316;2023-06-10T02:46:14;7.9;;;7.1;;
17949;SDS011;9100;48.700;9.316;2023-06-10T02:47:14;7.9;;;7.1;;
17949;SDS011;9100;48.700;9.316;2023-06-10T02:48:14;7.9;;;7.1;;
17949;SDS011;9100;48.700;9.316;2023-06-10T02:49:14;7.9;;;7.1;;
17949;SDS011;9100;48.700;9.316;2023-06-10T02:50:14;7.9;;;7.1;;
17949;SDS011;9100;48.700;9.316;2023-06-10T02:50:56;7.4;;;6.8;;
17949;SDS011;9100;48.700;9.316;2023-06-10T02:51:14;7.4;;;6.8;;
17949;SDS011;9100;48.700;9.316;2023-06-10T02:52:14;7.4;;;6.8;;
17949;SDS011;9100;48.700;9.316;2023-06-10T02:53:14;7.4;;;6.8;;
17949;SDS011;9100;48.700;9.316;2023-06-10T02:54:14;7.4;;;6.8;;
17949;SDS011;9100;48.700;9.316;2023-06-10T02:55:14;7.4;;;6.8;;
17949;SDS011;9100;48.700;9.316;2023-06-10T02:55:56;14.3;;;7.8;;
17949;SDS011;9100;48.700;9.316;2023-06-10T02:56:15;14.3;;;7.8;;
17949;SDS011;9100;48.700;9.316;2023-06-10T02:57:14;14.3;;;7.8;;
17949;SDS011;9100;48.700;9.316;2023-06-10T02:58:14;14.3;;;7.8;;
17949;SDS011;9100;48.700;9.316;2023-06-10T02:59:14;14.3;;;7.8;;
17949;SDS011;9100;48.700;9.316;2023-06-10T03:00:14;14.3;;;7.8;;
17949;SDS011;9100;48.700;9.316;2023-06-10T03:00:56;8.3;;;7.6;;
17949;SDS011;9100;48.700;9.316;2023-06-10T03:01:14;8.3;;;7.6;;
17949;SDS011;9100;48.700;9.316;2023-06-10T03:02:14;8.3;;;7.6;;
17949;SDS011;9100;48.700;9.316;2023-06-10T03:03:14;8.3;;;7.6;;
17949;SDS011;9100;48.700;9.316;2023-06-10T03:04:14;8.3;;;7.6;;
17949;SDS011;9100;48.700;9.316;2023-06-10T03:05:14;8.3;;;7.6;;
17949;SDS011;9100;48.700;9.316;2023-06-10T03:05:56;8.2;;;7.4;;
17949;SDS011;9100;48.700;9.316;2023-06-10T03:06:14;8.2;;;7.4;;
17949;SDS011;9100;48.700;9.316;2023-06-10T03:07:14;8.2;;;7.4;;
17949;SDS011;9100;48.700;9.316;2023-06-10T03:08:14;8.2;;;7.4;;
17949;SDS011;9100;48.700;9.316;2023-06-10T03:09:14;8.2;;;7.4;;
17949;SDS011;9100;48.700;9.316;2023-06-10T03:10:14;8.2;;;7.4;;
17949;SDS011;9100;48.700;9.316;2023-06-10T03:10:57;11.3;;;7.7;;
17949;SDS011;9100;48.700;9.316;2023-06-10T03:11:14;11.3;;;7.7;;
17949;SDS011;9100;48.700;9.316;2023-06-10T03:12:14;11.3;;;7.7;;
17949;SDS011;9100;48.700;9.316;2023-06-10T03:13:14;11.3;;;7.7;;
17949;SDS011;9100;48.700;9.316;2023-06-10T03:14:14;11.3;;;7.7;;
17949;SDS011;9100;48.700;9.316;2023-06-10T03:15:14;11.3;;;7.7;;
17949;SDS011;9100;48.700;9.316;2023-06-10T03:15:56;8.2;;;7.4;;
17949;SDS011;9100;48.700;9.316;2023-06-10T03:16:14;8.2;;;7.4;;
17949;SDS011;9100;48.700;9.316;2023-06-10T03:17:14;8.2;;;7.4;;
17949;SDS011;9100;48.700;9.316;2023-06-10T03:18:14;8.2;;;7.4;;
17949;SDS011;9100;48.700;9.316;2023-06-10T03:19:14;8.2;;;7.4;;
17949;SDS011;9100;48.700;9.316;2023-06-10T03:20:14;8.2;;;7.4;;
17949;SDS011;9100;48.700;9.316;2023-06-10T03:20:57;8.6;;;7.8;;
17949;SDS011;9100;48.700;9.316;2023-06-10T03:21:14;8.6;;;7.8;;
17949;SDS011;9100;48.700;9.316;2023-06-10T03:22:15;8.6;;;7.8;;
17949;SDS011;9100;48.700;9.316;2023-06-10T03:23:14;8.6;;;7.8;;
17949;SDS011;9100;48.700;9.316;2023-06-10T03:24:14;8.6;;;7.8;;
17949;SDS011;9100;48.700;9.316;2023-06-10T03:25:14;8.6;;;7.8;;
17949;SDS011;9100;48.700;9.316;2023-06-10T03:25:56;8;;;7.2;;
17949;SDS011;9100;48.700;9.316;2023-06-10T03:26:14;8;;;7.2;;
17949;SDS011;9100;48.700;9.316;2023-06-10T03:27:14;8;;;7.2;;
17949;SDS011;9100;48.700;9.316;2023-06-10T03:28:14;8;;;7.2;;
17949;SDS011;9100;48.700;9.316;2023-06-10T03:29:14;8;;;7.2;;
17949;SDS011;9100;48.700;9.316;2023-06-10T03:30:14;8;;;7.2;;
17949;SDS011;9100;48.700;9.316;2023-06-10T03:30:57;13;;;7.7;;
17949;SDS011;9100;48.700;9.316;2023-06-10T03:31:14;13;;;7.7;;
17949;SDS011;9100;48.700;9.316;2023-06-10T03:32:14;13;;;7.7;;
17949;SDS011;9100;48.700;9.316;2023-06-10T03:33:14;13;;;7.7;;
17949;SDS011;9100;48.700;9.316;2023-06-10T03:34:14;13;;;7.7;;
17949;SDS011;9100;48.700;9.316;2023-06-10T03:35:14;13;;;7.7;;
17949;SDS011;9100;48.700;9.316;2023-06-10T03:35:56;10.1;;;7.4;;
17949;SDS011;9100;48.700;9.316;2023-06-10T03:36:14;10.1;;;7.4;;
17949;SDS011;9100;48.700;9.316;2023-06-10T03:37:14;10.1;;;7.4;;
17949;SDS011;9100;48.700;9.316;2023-06-10T03:38:14;10.1;;;7.4;;
17949;SDS011;9100;48.700;9.316;2023-06-10T03:39:14;10.1;;;7.4;;
17949;SDS011;9100;48.700;9.316;2023-06-10T03:40:14;10.1;;;7.4;;
17949;SDS011;9100;48.700;9.316;2023-06-10T03:40:56;8.5;;;7.5;;
17949;SDS011;9100;48.700;9.316;2023-06-10T03:41:14;8.5;;;7.5;;
17949;SDS011;9100;48.700;9.316;2023-06-10T03:42:14;8.5;;;7.5;;
17949;SDS011;9100;48.700;9.316;2023-06-10T03:43:14;8.5;;;7.5;;
17949;SDS011;9100;48.700;9.316;2023-06-10T03:44:14;8.5;;;7.5;;
17949;SDS011;9100;48.700;9.316;2023-06-10T03:45:14;8.5;;;7.5;;
17949;SDS011;9100;48.700;9.316;2023-06-10T03:45:56;19.9;;;7.7;;
17949;SDS011;9100;48.700;9.316;2023-06-10T03:46:14;19.9;;;7.7;;
17949;SDS011;9100;48.700;9.316;2023-06-10T03:47:14;19.9;;;7.7;;
17949;SDS011;9100;48.700;9.316;2023-06-10T03:48:14;19.9;;;7.7;;
17949;SDS011;9100;48.700;9.316;2023-06-10T03:49:14;19.9;;;7.7;;
17949;SDS011;9100;48.700;9.316;2023-06-10T03:50:14;19.9;;;7.7;;
17949;SDS011;9100;48.700;9.316;2023-06-10T03:50:56;8.5;;;7.8;;
17949;SDS011;9100;48.700;9.316;2023-06-10T03:51:14;8.5;;;7.8;;
17949;SDS011;9100;48.700;9.316;2023-06-10T03:52:14;8.5;;;7.8;;
17949;SDS011;9100;48.700;9.316;2023-06-10T03:53:14;8.5;;;7.8;;
17949;SDS011;9100;48.700;9.316;2023-06-10T03:54:14;8.5;;;7.8;;
17949;SDS011;9100;48.700;9.316;2023-06-10T03:55:14;8.5;;;7.8;;
17949;SDS011;9100;48.700;9.316;2023-06-10T03:55:57;8.8;;;7.8;;
17949;SDS011;9100;48.700;9.316;2023-06-10T03:56:14;8.8;;;7.8;;
17949;SDS011;9100;48.700;9.316;2023-06-10T03:57:14;8.8;;;7.8;;
17949;SDS011;9100;48.700;9.316;2023-06-10T03:58:14;8.8;;;7.8;;
17949;SDS011;9100;48.700;9.316;2023-06-10T03:59:14;8.8;;;7.8;;
17949;SDS011;9100;48.700;9.316;2023-06-10T04:00:14;8.8;;;7.8;;
17949;SDS011;9100;48.700;9.316;2023-06-10T04:00:57;8.2;;;7.4;;
17949;SDS011;9100;48.700;9.316;2023-06-10T04:01:14;8.2;;;7.4;;
17949;SDS011;9100;48.700;9.316;2023-06-10T04:02:14;8.2;;;7.4;;
17949;SDS011;9100;48.700;9.316;2023-06-10T04:03:14;8.2;;;7.4;;
17949;SDS011;9100;48.700;9.316;2023-06-10T04:04:14;8.2;;;7.4;;
17949;SDS011;9100;48.700;9.316;2023-06-10T04:05:15;8.2;;;7.4;;
17949;SDS011;9100;48.700;9.316;2023-06-10T04:05:56;9.5;;;7.6;;
17949;SDS011;9100;48.700;9.316;2023-06-10T04:06:14;9.5;;;7.6;;
17949;SDS011;9100;48.700;9.316;2023-06-10T04:07:14;9.5;;;7.6;;
17949;SDS011;9100;48.700;9.316;2023-06-10T04:08:14;9.5;;;7.6;;
17949;SDS011;9100;48.700;9.316;2023-06-10T04:09:14;9.5;;;7.6;;
17949;SDS011;9100;48.700;9.316;2023-06-10T04:10:14;9.5;;;7.6;;
17949;SDS011;9100;48.700;9.316;2023-06-10T04:10:56;8.1;;;7.4;;
17949;SDS011;9100;48.700;9.316;2023-06-10T04:11:14;8.1;;;7.4;;
17949;SDS011;9100;48.700;9.316;2023-06-10T04:12:14;8.1;;;7.4;;
17949;SDS011;9100;48.700;9.316;2023-06-10T04:13:14;8.1;;;7.4;;
17949;SDS011;9100;48.700;9.316;2023-06-10T04:14:14;8.1;;;7.4;;
17949;SDS011;9100;48.700;9.316;2023-06-10T04:15:14;8.1;;;7.4;;
17949;SDS011;9100;48.700;9.316;2023-06-10T04:15:57;8.3;;;7.5;;
17949;SDS011;9100;48.700;9.316;2023-06-10T04:16:14;8.3;;;7.5;;
17949;SDS011;9100;48.700;9.316;2023-06-10T04:17:14;8.3;;;7.5;;
17949;SDS011;9100;48.700;9.316;2023-06-10T04:18:14;8.3;;;7.5;;
17949;SDS011;9100;48.700;9.316;2023-06-10T04:19:14;8.3;;;7.5;;
17949;SDS011;9100;48.700;9.316;2023-06-10T04:20:14;8.3;;;7.5;;
17949;SDS011;9100;48.700;9.316;2023-06-10T04:20:57;8.8;;;7.6;;
17949;SDS011;9100;48.700;9.316;2023-06-10T04:21:14;8.8;;;7.6;;
17949;SDS011;9100;48.700;9.316;2023-06-10T04:22:14;8.8;;;7.6;;
17949;SDS011;9100;48.700;9.316;2023-06-10T04:23:14;8.8;;;7.6;;
17949;SDS011;9100;48.700;9.316;2023-06-10T04:24:14;8.8;;;7.6;;
17949;SDS011;9100;48.700;9.316;2023-06-10T04:25:14;8.8;;;7.6;;
17949;SDS011;9100;48.700;9.316;2023-06-10T04:25:57;7.6;;;6.9;;
17949;SDS011;9100;48.700;9.316;2023-06-10T04:26:14;7.6;;;6.9;;
17949;SDS011;9100;48.700;9.316;2023-06-10T04:27:14;7.6;;;6.9;;
17949;SDS011;9100;48.700;9.316;2023-06-10T04:28:14;7.6;;;6.9;;
17949;SDS011;9100;48.700;9.316;2023-06-10T04:29:14;7.6;;;6.9;;
17949;SDS011;9100;48.700;9.316;2023-06-10T04:30:14;7.6;;;6.9;;
17949;SDS011;9100;48.700;9.316;2023-06-10T04:30:56;7.6;;;6.9;;
17949;SDS011;9100;48.700;9.316;2023-06-10T04:31:14;7.6;;;6.9;;
17949;SDS011;9100;48.700;9.316;2023-06-10T04:32:14;7.6;;;6.9;;
17949;SDS011;9100;48.700;9.316;2023-06-10T04:33:14;7.6;;;6.9;;
17949;SDS011;9100;48.700;9.316;2023-06-10T04:34:14;7.6;;;6.9;;
17949;SDS011;9100;48.700;9.316;2023-06-10T04:35:14;7.6;;;6.9;;
17949;SDS011;9100;48.700;9.316;2023-06-10T04:35:56;9.3;;;7.7;;
17949;SDS011;9100;48.700;9.316;2023-06-10T04:36:14;9.3;;;7.7;;
17949;SDS011;9100;48.700;9.316;2023-06-10T04:37:14;9.3;;;7.7;;
17949;SDS011;9100;48.700;9.316;2023-06-10T04:38:14;9.3;;;7.7;;
17949;SDS011;9100;48.700;9.316;2023-06-10T04:39:14;9.3;;;7.7;;
17949;SDS011;9100;48.700;9.316;2023-06-10T04:40:14;9.3;;;7.7;;
17949;SDS011;9100;48.700;9.316;2023-06-10T04:40:57;8.7;;;7.6;;
17949;SDS011;9100;48.700;9.316;2023-06-10T04:41:14;8.7;;;7.6;;
17949;SDS011;9100;48.700;9.316;2023-06-10T04:42:14;8.7;;;7.6;;
17949;SDS011;9100;48.700;9.316;2023-06-10T04:43:14;8.7;;;7.6;;
17949;SDS011;9100;48.700;9.316;2023-06-10T04:44:14;8.7;;;7.6;;
17949;SDS011;9100;48.700;9.316;2023-06-10T04:45:14;8.7;;;7.6;;
17949;SDS011;9100;48.700;9.316;2023-06-10T04:45:57;8.6;;;7.8;;
17949;SDS011;9100;48.700;9.316;2023-06-10T04:46:14;8.6;;;7.8;;
17949;SDS011;9100;48.700;9.316;2023-06-10T04:47:14;8.6;;;7.8;;
17949;SDS011;9100;48.700;9.316;2023-06-10T04:48:14;8.6;;;7.8;;
17949;SDS011;9100;48.700;9.316;2023-06-10T04:49:14;8.6;;;7.8;;
17949;SDS011;9100;48.700;9.316;2023-06-10T04:50:14;8.6;;;7.8;;
17949;SDS011;9100;48.700;9.316;2023-06-10T04:50:58;8;;;7.3;;
17949;SDS011;9100;48.700;9.316;2023-06-10T04:51:14;8;;;7.3;;
17949;SDS011;9100;48.700;9.316;2023-06-10T04:52:14;8;;;7.3;;
17949;SDS011;9100;48.700;9.316;2023-06-10T04:53:14;8;;;7.3;;
17949;SDS011;9100;48.700;9.316;2023-06-10T04:54:14;8;;;7.3;;
17949;SDS011;9100;48.700;9.316;2023-06-10T04:55:14;8;;;7.3;;
17949;SDS011;9100;48.700;9.316;2023-06-10T04:55:57;8.3;;;7.5;;
17949;SDS011;9100;48.700;9.316;2023-06-10T04:56:14;8.3;;;7.5;;
17949;SDS011;9100;48.700;9.316;2023-06-10T04:57:14;8.3;;;7.5;;
17949;SDS011;9100;48.700;9.316;2023-06-10T04:58:14;8.3;;;7.5;;
17949;SDS011;9100;48.700;9.316;2023-06-10T04:59:14;8.3;;;7.5;;
17949;SDS011;9100;48.700;9.316;2023-06-10T05:00:14;8.3;;;7.5;;
17949;SDS011;9100;48.700;9.316;2023-06-10T05:00:57;9.4;;;8.3;;
17949;SDS011;9100;48.700;9.316;2023-06-10T05:01:14;9.4;;;8.3;;
17949;SDS011;9100;48.700;9.316;2023-06-10T05:02:14;9.4;;;8.3;;
17949;SDS011;9100;48.700;9.316;2023-06-10T05:03:14;9.4;;;8.3;;
17949;SDS011;9100;48.700;9.316;2023-06-10T05:04:14;9.4;;;8.3;;
17949;SDS011;9100;48.700;9.316;2023-06-10T05:05:14;9.4;;;8.3;;
17949;SDS011;9100;48.700;9.316;2023-06-10T05:05:57;10.2;;;8.4;;
17949;SDS011;9100;48.700;9.316;2023-06-10T05:06:14;10.2;;;8.4;;
17949;SDS011;9100;48.700;9.316;2023-06-10T05:07:14;10.2;;;8.4;;
17949;SDS011;9100;48.700;9.316;2023-06-10T05:08:14;10.2;;;8.4;;
17949;SDS011;9100;48.700;9.316;2023-06-10T05:09:14;10.2;;;8.4;;
17949;SDS011;9100;48.700;9.316;2023-06-10T05:10:14;10.2;;;8.4;;
17949;SDS011;9100;48.700;9.316;2023-06-10T05:10:56;9;;;7.7;;
17949;SDS011;9100;48.700;9.316;2023-06-10T05:11:14;9;;;7.7;;
17949;SDS011;9100;48.700;9.316;2023-06-10T05:12:14;9;;;7.7;;
17949;SDS011;9100;48.700;9.316;2023-06-10T05:13:14;9;;;7.7;;
17949;SDS011;9100;48.700;9.316;2023-06-10T05:14:14;9;;;7.7;;
17949;SDS011;9100;48.700;9.316;2023-06-10T05:15:14;9;;;7.7;;
17949;SDS011;9100;48.700;9.316;2023-06-10T05:15:57;10;;;7;;